Latest Weather Observations for Bickley

IDW60801

Issued at 7:35 pm WST Wednesday 23 July 2014 (issued every 30 minutes, with the page automatically refreshed every 10 minutes)

About weather observations | Map of weather stations | Latest weather observations for WA | Other Formats
Station Details ID: 009240 Name: BICKLEY Lat: -32.01 Lon: 116.14 Height: 384.0 m
Data from the previous 72 hours. | See also: Recent months at Bickley
Date/Time
WST
Temp
°C
App
Temp
°C
Dew
Point
Rel
Hum
%
Delta-T
°C
Wind Press
QNH
hPa
Press
MSL
hPa
Rain
since 9 am
mm
Dir
 
Spd
km/h
Gust
km/h
Spd
kts
Gust
kts
23/07:30pm 9.3 - 8.7 96 0.3 - - - - - - - 0.4
23/07:00pm 9.3 - 8.7 96 0.3 - - - - - - - 0.4
23/06:30pm 10.0 - 9.4 96 0.3 - - - - - - - 0.4
23/06:00pm 10.2 - 9.6 96 0.3 - - - - - - - 0.4
23/05:30pm 10.3 - 9.7 96 0.3 - - - - - - - 0.4
23/05:00pm 10.9 - 10.1 95 0.4 - - - - - - - 0.4
23/04:30pm 11.8 9.2 9.5 86 1.2 WNW 13 22 7 12 - - 0.4
23/04:00pm 11.6 8.7 9.5 87 1.1 WNW 15 24 8 13 - - 0.4
23/03:30pm 10.9 - 10.3 96 0.3 - - - - - - - 0.4
23/03:00pm 11.0 - 10.2 95 0.4 - - - - - - - 0.2
23/02:30pm 11.3 9.7 10.2 93 0.6 WNW 9 15 5 8 - - 0.2
23/02:00pm 11.3 8.6 8.9 85 1.2 NW 13 24 7 13 - - 0.0
23/01:30pm 11.1 8.4 8.8 86 1.2 NW 13 24 7 13 - - 0.0
23/01:00pm 11.5 8.5 9.2 86 1.2 NW 15 20 8 11 - - 0.0
23/12:30pm 11.3 9.4 8.9 85 1.2 WNW 9 17 5 9 - - 0.0
23/12:00pm 11.2 9.9 9.1 87 1.1 NW 6 13 3 7 - - 0.0
23/11:30am 10.7 9.4 9.1 90 0.8 N 6 11 3 6 - - 0.0
23/11:00am 9.5 8.4 8.3 92 0.6 N 4 7 2 4 - - 0.0
23/10:30am 8.6 6.4 8.0 96 0.3 NNW 9 15 5 8 - - 0.0
23/10:00am 9.1 7.6 8.5 96 0.3 WNW 6 7 3 4 - - 0.0
23/09:30am 8.7 7.5 8.1 96 0.3 N 4 7 2 4 - - 0.0
23/09:00am 8.1 7.5 7.5 96 0.3 CALM 0 4 0 2 - - 6.4
23/08:30am 7.4 - 7.0 97 0.2 - - - - - - - 6.4
23/08:00am 7.1 - 6.7 97 0.2 - - - - - - - 6.4
23/07:30am 6.6 - 6.2 97 0.2 - - - - - - - 6.4
23/07:00am 6.5 - 6.1 97 0.2 - - - - - - - 6.4
23/06:30am 6.4 - 6.0 97 0.2 - - - - - - - 6.2
23/06:00am 6.1 - 5.7 97 0.2 - - - - - - - 6.2
23/05:30am 6.2 - 5.8 97 0.2 - - - - - - - 6.2
23/05:00am 5.9 - 4.2 89 0.7 - - - - - - - 6.2
23/04:30am 5.8 - 4.4 91 0.6 - - - - - - - 6.2
23/04:00am 6.0 - 2.1 76 1.6 - - - - - - - 6.2
23/03:30am 6.5 - 2.8 77 1.6 - - - - - - - 6.2
23/03:00am 6.5 - 2.8 77 1.6 - - - - - - - 6.2
23/02:30am 6.1 - 2.4 77 1.6 - - - - - - - 6.2
23/02:00am 6.5 - 2.8 77 1.6 - - - - - - - 6.2
23/01:30am 6.7 - 3.0 77 1.6 - - - - - - - 6.2
23/01:00am 7.0 - 3.3 77 1.6 - - - - - - - 6.2
23/12:30am 7.3 - 3.5 77 1.7 - - - - - - - 6.2
23/12:00am 7.6 - 3.8 77 1.7 - - - - - - - 6.2
 
Date/Time
WST
Temp
°C
App
Temp
°C
Dew
Point
Rel
Hum
%
Delta-T
°C
Wind Press
QNH
hPa
Press
MSL
hPa
Rain
since 9 am
mm
Dir
 
Spd
km/h
Gust
km/h
Spd
kts
Gust
kts
22/11:30pm 7.9 - 4.1 77 1.7 - - - - - - - 6.2
22/11:00pm 8.0 - 4.2 77 1.7 - - - - - - - 6.2
22/10:30pm 8.2 - 4.4 77 1.7 - - - - - - - 6.2
22/10:00pm 8.2 - 4.4 77 1.7 - - - - - - - 6.2
22/09:30pm 8.5 - 4.7 77 1.7 - - - - - - - 6.2
22/09:00pm 8.8 - 5.0 77 1.7 - - - - - - - 6.2
22/08:30pm 8.8 - 5.0 77 1.7 - - - - - - - 6.2
22/08:00pm 8.9 - 5.1 77 1.7 - - - - - - - 6.2
22/07:30pm 9.0 - 5.2 77 1.7 - - - - - - - 6.0
22/07:00pm 8.9 - 5.1 77 1.7 - - - - - - - 6.0
22/06:30pm 9.0 - 5.2 77 1.7 - - - - - - - 5.8
22/06:00pm 9.1 - 5.3 77 1.8 - - - - - - - 5.0
22/05:30pm 9.1 - 5.3 77 1.8 - - - - - - - 4.8
22/05:00pm 9.0 - 5.2 77 1.7 - - - - - - - 4.8
22/04:30pm 9.3 - 5.5 77 1.8 - - - - - - - 4.8
22/04:00pm 9.5 - 5.7 77 1.8 - - - - - - - 4.2
22/03:30pm 9.4 - 5.6 77 1.8 - - - - - - - 4.2
22/03:00pm 9.7 - 5.9 77 1.8 - - - - - - - 4.0
22/02:30pm 9.6 - 5.8 77 1.8 - - - - - - - 3.8
22/02:00pm 10.0 - 5.2 72 2.2 - - - - - - - 0.8
22/01:30pm 11.1 7.4 4.6 64 3.0 SW 13 22 7 12 - - 0.0
22/01:00pm 10.8 7.1 4.3 64 3.0 WSW 13 24 7 13 - - 0.0
22/12:30pm 10.5 6.5 4.9 68 2.6 W 15 24 8 13 - - 0.0
22/12:00pm 10.2 5.8 4.6 68 2.6 WSW 17 32 9 17 - - 0.0
22/11:30am 10.1 6.8 4.7 69 2.5 W 11 17 6 9 - - 0.0
22/11:00am 10.7 7.1 5.0 68 2.6 W 13 22 7 12 - - 0.0
22/10:30am 9.8 6.4 4.2 68 2.5 W 11 15 6 8 - - 0.0
22/10:00am 9.8 6.5 4.4 69 2.5 W 11 22 6 12 - - 0.0
22/09:30am 9.3 6.4 4.9 74 2.0 SW 9 15 5 8 - - 0.0
22/09:00am 8.3 5.0 4.5 77 1.7 SW 11 15 6 8 - - 27.4
22/08:30am 6.7 3.5 3.0 77 1.6 SW 9 11 5 6 - - 27.4
22/08:00am 6.5 2.9 2.8 77 1.6 SSW 11 17 6 9 - - 27.4
22/07:30am 6.4 - 2.7 77 1.6 - - - - - - - 27.4
22/07:00am 6.8 - 3.1 77 1.6 - - - - - - - 27.4
22/06:30am 7.1 - 3.3 77 1.6 - - - - - - - 26.4
22/06:00am 7.0 - 3.3 77 1.6 - - - - - - - 26.2
22/05:30am 7.1 - 3.3 77 1.6 - - - - - - - 26.2
22/05:00am 7.6 - 3.8 77 1.7 - - - - - - - 25.8
22/04:30am 7.6 - 3.8 77 1.7 - - - - - - - 23.2
22/04:00am 7.8 - 4.0 77 1.7 - - - - - - - 23.0
22/03:30am 7.9 - 4.1 77 1.7 - - - - - - - 22.8
22/03:00am 8.0 - 4.2 77 1.7 - - - - - - - 22.0
22/02:30am 8.0 - 4.2 77 1.7 - - - - - - - 21.2
22/02:00am 8.1 - 4.3 77 1.7 - - - - - - - 21.0
22/01:30am 8.2 - 4.4 77 1.7 - - - - - - - 18.8
22/01:00am 8.8 - 5.0 77 1.7 - - - - - - - 16.4
22/12:30am 8.9 - 5.1 77 1.7 - - - - - - - 16.2
22/12:00am 9.1 - 5.3 77 1.8 - - - - - - - 16.2
 
Date/Time
WST
Temp
°C
App
Temp
°C
Dew
Point
Rel
Hum
%
Delta-T
°C
Wind Press
QNH
hPa
Press
MSL
hPa
Rain
since 9 am
mm
Dir
 
Spd
km/h
Gust
km/h
Spd
kts
Gust
kts
21/11:30pm 9.0 - 5.2 77 1.7 - - - - - - - 16.2
21/11:00pm 9.9 - 6.1 77 1.8 - - - - - - - 14.0
21/10:30pm 10.1 - 6.3 77 1.8 - - - - - - - 14.0
21/10:00pm 10.2 - 6.4 77 1.8 - - - - - - - 14.0
21/09:30pm 10.4 - 6.5 77 1.9 - - - - - - - 13.2
21/09:00pm 10.6 - 6.7 77 1.9 - - - - - - - 10.8
21/08:30pm 10.7 - 6.8 77 1.9 - - - - - - - 6.6
21/08:00pm 10.7 - 6.8 77 1.9 - - - - - - - 4.4
21/07:30pm 10.9 - 7.0 77 1.9 - - - - - - - 2.6
21/07:00pm 11.0 - 7.1 77 1.9 - - - - - - - 2.6
21/06:30pm 11.2 - 7.3 77 1.9 - - - - - - - 2.6
21/06:00pm 11.5 - 7.6 77 1.9 - - - - - - - 2.6
21/05:30pm 11.7 - 7.8 77 1.9 - - - - - - - 2.6
21/05:00pm 11.8 - 7.9 77 1.9 - - - - - - - 2.6
21/04:30pm 11.7 - 7.8 77 1.9 - - - - - - - 2.6
21/04:00pm 12.0 - 8.1 77 2.0 - - - - - - - 2.6
21/03:30pm 11.7 - 7.8 77 1.9 - - - - - - - 2.2
21/03:00pm 11.5 7.7 7.6 77 1.9 N 17 33 9 18 - - 2.0
21/02:30pm 11.3 6.5 7.4 77 1.9 NNW 22 39 12 21 - - 1.4
21/02:00pm 11.7 8.0 7.8 77 1.9 NNW 17 26 9 14 - - 0.6
21/01:30pm 12.0 9.0 7.5 74 2.2 NNW 13 26 7 14 - - 0.2
21/01:00pm 12.7 8.1 6.3 65 3.1 NNW 20 33 11 18 - - 0.0
21/12:30pm 13.2 10.1 7.4 68 2.9 N 13 24 7 13 - - 0.0
21/12:00pm 12.1 8.5 6.6 69 2.7 NNW 15 26 8 14 - - 0.0
21/11:30am 12.9 9.1 6.0 63 3.3 N 15 26 8 14 - - 0.0
21/11:00am 12.0 8.2 5.6 65 3.0 NNW 15 24 8 13 - - 0.0
21/10:30am 12.0 7.9 6.1 67 2.8 NW 17 26 9 14 - - 0.0
21/10:00am 13.1 11.2 7.5 69 2.8 N 7 11 4 6 - - 0.0
21/09:30am 12.3 10.7 7.8 74 2.2 N 6 9 3 5 - - 0.0
21/09:00am 11.2 9.2 7.3 77 1.9 N 7 13 4 7 - - 2.4
21/08:30am 9.4 5.9 5.6 77 1.8 NNW 13 17 7 9 - - 2.4
21/08:00am 8.9 6.1 5.1 77 1.7 NW 9 13 5 7 - - 2.4
21/07:30am 9.0 - 5.2 77 1.7 - - - - - - - 2.4
21/07:00am 9.5 - 5.7 77 1.8 - - - - - - - 2.4
21/06:30am 10.0 - 6.2 77 1.8 - - - - - - - 2.4
21/06:00am 10.0 - 6.2 77 1.8 - - - - - - - 2.4
21/05:30am 10.2 - 6.4 77 1.8 - - - - - - - 2.4
21/05:00am 10.3 - 6.5 77 1.8 - - - - - - - 2.4
21/04:30am 10.4 - 6.5 77 1.9 - - - - - - - 2.2
21/04:00am 10.5 - 6.6 77 1.9 - - - - - - - 2.0
21/03:30am 10.5 - 6.6 77 1.9 - - - - - - - 1.8
21/03:00am 10.0 - 6.2 77 1.8 - - - - - - - 0.2
21/02:30am 9.5 - 5.7 77 1.8 - - - - - - - 0.2
21/02:00am 8.8 - 5.0 77 1.7 - - - - - - - 0.2
21/01:30am 8.8 - 5.2 78 1.7 - - - - - - - 0.2
21/01:00am 8.4 - 4.6 77 1.7 - - - - - - - 0.2
21/12:30am 8.4 - 4.8 78 1.6 - - - - - - - 0.2
21/12:00am 8.5 - 4.9 78 1.6 - - - - - - - 0.2
 
Date/Time
WST
Temp
°C
App
Temp
°C
Dew
Point
Rel
Hum
%
Delta-T
°C
Wind Press
QNH
hPa
Press
MSL
hPa
Rain
since 9 am
mm
Dir
 
Spd
km/h
Gust
km/h
Spd
kts
Gust
kts
20/11:30pm 8.9 - 5.3 78 1.7 - - - - - - - 0.0
20/11:00pm 8.8 - 5.2 78 1.7 - - - - - - - 0.0
20/10:30pm 8.8 - 5.2 78 1.7 - - - - - - - 0.0
20/10:00pm 8.9 - 5.3 78 1.7 - - - - - - - 0.0
20/09:30pm 8.3 - 4.7 78 1.6 - - - - - - - 0.0
20/09:00pm 8.6 - 4.8 77 1.7 - - - - - - - 0.0
20/08:30pm 9.4 - 5.4 76 1.9 - - - - - - - 0.0
20/08:00pm 9.4 - 5.6 77 1.8 - - - - - - - 0.0

Other Formats:

Comma delimited format used in spreadsheet applications
http://www.bom.gov.au/fwo/IDW60801/IDW60801.95610.axf

JavaScript Object Notation format (JSON) in row-major order
http://www.bom.gov.au/fwo/IDW60801/IDW60801.95610.json